createdAt,value
2023-05-15T00:00:05.920Z,5.75
2023-05-15T00:02:34.480Z,4.35
2023-05-15T00:05:00.335Z,4.72
2023-05-15T00:07:26.138Z,4.80
2023-05-15T00:09:51.873Z,4.78
2023-05-15T00:12:17.709Z,4.25
2023-05-15T00:14:43.448Z,4.90
2023-05-15T00:17:09.326Z,5.07
2023-05-15T00:19:35.128Z,5.22
2023-05-15T00:22:00.910Z,4.28
2023-05-15T00:24:26.632Z,4.75
2023-05-15T00:26:52.424Z,5.07
2023-05-15T00:29:18.173Z,4.82
2023-05-15T00:31:43.909Z,4.90
2023-05-15T00:34:09.703Z,4.57
2023-05-15T00:36:35.537Z,4.82
2023-05-15T00:39:01.293Z,5.18
2023-05-15T00:41:28.115Z,5.20
2023-05-15T00:43:54.840Z,4.50
2023-05-15T00:46:21.199Z,5.35
2023-05-15T00:48:47.831Z,5.22
2023-05-15T00:51:13.559Z,5.20
2023-05-15T00:53:39.842Z,4.82
2023-05-15T00:56:06.411Z,4.82
2023-05-15T00:58:33.133Z,4.72
2023-05-15T01:00:58.876Z,5.18
2023-05-15T01:03:24.967Z,6.05
2023-05-15T01:05:50.901Z,5.85
2023-05-15T01:08:16.624Z,6.35
2023-05-15T01:10:42.493Z,5.78
2023-05-15T01:13:08.846Z,5.43
2023-05-15T01:15:35.104Z,6.82
2023-05-15T01:18:00.989Z,6.15
2023-05-15T01:20:26.883Z,6.70
2023-05-15T01:22:52.589Z,6.20
2023-05-15T01:25:37.015Z,5.97
2023-05-15T01:28:08.724Z,7.13
2023-05-15T01:30:35.899Z,6.22
2023-05-15T01:33:01.649Z,6.80
2023-05-15T01:35:30.607Z,7.45
2023-05-15T01:38:10.249Z,6.53
2023-05-15T01:40:35.987Z,7.95
2023-05-15T01:43:05.261Z,7.72
2023-05-15T01:45:31.650Z,6.88
2023-05-15T01:47:58.682Z,7.38
2023-05-15T01:50:26.074Z,6.28
2023-05-15T01:52:53.678Z,7.03
2023-05-15T01:55:21.609Z,8.00
2023-05-15T01:57:48.590Z,7.63
2023-05-15T02:00:14.607Z,6.95
2023-05-15T02:02:41.446Z,7.13
2023-05-15T02:05:07.648Z,6.47
2023-05-15T02:07:34.054Z,7.30
2023-05-15T02:10:01.368Z,7.22
2023-05-15T02:12:28.228Z,7.50
2023-05-15T02:14:54.446Z,8.43
2023-05-15T02:17:20.909Z,8.30
2023-05-15T02:19:46.649Z,8.25
2023-05-15T02:22:12.417Z,8.50
2023-05-15T02:24:38.149Z,8.13
2023-05-15T02:27:07.824Z,7.95
2023-05-15T02:29:45.177Z,8.00
2023-05-15T02:32:19.036Z,8.05
2023-05-15T02:34:49.449Z,8.77
2023-05-15T02:37:17.965Z,8.38
2023-05-15T02:39:45.433Z,8.73
2023-05-15T02:42:12.171Z,8.95
2023-05-15T02:44:38.406Z,8.75
2023-05-15T02:47:04.855Z,9.45
2023-05-15T02:49:30.647Z,8.35
2023-05-15T02:51:56.402Z,8.45
2023-05-15T02:54:22.197Z,8.07
2023-05-15T02:56:47.981Z,7.93
2023-05-15T02:59:18.097Z,7.93
2023-05-15T03:01:43.974Z,9.18
2023-05-15T03:04:09.827Z,10.48
2023-05-15T03:06:35.681Z,9.80
2023-05-15T03:09:01.504Z,8.55
2023-05-15T03:11:27.255Z,9.80
2023-05-15T03:13:52.990Z,8.98
2023-05-15T03:16:18.791Z,9.27
2023-05-15T03:18:44.624Z,9.35
2023-05-15T03:21:10.481Z,10.07
2023-05-15T03:23:37.859Z,10.95
2023-05-15T03:26:03.932Z,10.02
2023-05-15T03:28:29.818Z,9.23
2023-05-15T03:30:55.605Z,9.07
2023-05-15T03:33:21.364Z,10.25
2023-05-15T03:35:47.098Z,10.27
2023-05-15T03:38:12.864Z,8.82
2023-05-15T03:40:38.932Z,8.35
2023-05-15T03:43:05.602Z,7.80
2023-05-15T03:45:33.169Z,7.50
2023-05-15T03:47:58.908Z,7.47
2023-05-15T03:50:24.666Z,7.60
2023-05-15T03:52:50.448Z,9.10
2023-05-15T03:55:16.256Z,6.78
2023-05-15T03:57:42.079Z,8.25
2023-05-15T04:00:11.459Z,7.03
2023-05-15T04:02:37.860Z,7.75
2023-05-15T04:05:04.655Z,7.45
2023-05-15T04:07:32.002Z,8.00
2023-05-15T04:10:00.864Z,7.22
2023-05-15T04:12:29.038Z,7.70
2023-05-15T04:15:15.063Z,7.90
2023-05-15T04:17:41.215Z,7.03
2023-05-15T04:20:07.299Z,6.57
2023-05-15T04:22:33.048Z,7.72
2023-05-15T04:24:58.803Z,7.25
2023-05-15T04:27:25.316Z,6.50
2023-05-15T04:29:51.044Z,7.22
2023-05-15T04:32:17.010Z,7.00
2023-05-15T04:34:42.864Z,6.50
2023-05-15T04:37:08.606Z,7.82
2023-05-15T04:39:34.331Z,6.40
2023-05-15T04:42:00.058Z,6.25
2023-05-15T04:44:25.878Z,6.55
2023-05-15T04:46:51.618Z,6.35
2023-05-15T04:49:17.365Z,6.68
2023-05-15T04:51:43.116Z,6.47
2023-05-15T04:54:08.873Z,5.25
2023-05-15T04:56:35.497Z,6.20
2023-05-15T04:59:01.741Z,6.95
2023-05-15T05:01:27.714Z,5.95
2023-05-15T05:03:53.545Z,6.03
2023-05-15T05:06:19.398Z,5.90
2023-05-15T05:08:45.245Z,5.53
2023-05-15T05:11:11.051Z,5.85
2023-05-15T05:13:36.919Z,6.60
2023-05-15T05:16:02.872Z,5.18
2023-05-15T05:18:30.140Z,5.00
2023-05-15T05:21:02.858Z,5.35
2023-05-15T05:23:31.945Z,5.55
2023-05-15T05:25:58.613Z,5.53
2023-05-15T05:28:25.604Z,6.78
2023-05-15T05:30:51.491Z,6.18
2023-05-15T05:33:17.437Z,6.22
2023-05-15T05:35:43.419Z,5.68
2023-05-15T05:38:09.412Z,5.53
2023-05-15T05:40:35.478Z,7.30
2023-05-15T05:43:38.529Z,6.75
2023-05-15T05:46:04.383Z,5.97
2023-05-15T05:48:30.467Z,6.57
2023-05-15T05:50:56.411Z,6.75
2023-05-15T05:53:22.489Z,5.80
2023-05-15T05:55:48.689Z,6.32
2023-05-15T05:58:24.420Z,5.70
2023-05-15T06:00:51.184Z,5.35
2023-05-15T06:03:18.294Z,5.80
2023-05-15T06:05:44.621Z,4.93
2023-05-15T06:08:11.018Z,5.63
2023-05-15T06:10:37.032Z,5.47
2023-05-15T06:13:18.664Z,4.72
2023-05-15T06:15:45.933Z,4.53
2023-05-15T06:18:12.247Z,4.88
2023-05-15T06:20:38.536Z,5.50
2023-05-15T06:23:04.811Z,4.80
2023-05-15T06:25:32.242Z,6.60
2023-05-15T06:27:58.421Z,4.97
2023-05-15T06:30:24.617Z,4.85
2023-05-15T06:32:50.970Z,5.22
2023-05-15T06:35:16.856Z,4.68
2023-05-15T06:37:42.736Z,5.28
2023-05-15T06:40:08.859Z,6.25
2023-05-15T06:42:34.992Z,4.78
2023-05-15T06:45:01.056Z,5.20
2023-05-15T06:47:27.108Z,5.05
2023-05-15T06:49:55.091Z,5.53
2023-05-15T06:52:21.106Z,4.20
2023-05-15T06:54:47.749Z,4.88
2023-05-15T06:57:13.938Z,4.40
2023-05-15T06:59:39.860Z,4.93
2023-05-15T07:02:06.081Z,4.75
2023-05-15T07:04:32.199Z,5.47
2023-05-15T07:06:58.092Z,5.20
2023-05-15T07:09:24.647Z,5.30
2023-05-15T07:11:50.559Z,5.30
2023-05-15T07:14:17.641Z,4.05
2023-05-15T07:16:44.692Z,4.65
2023-05-15T07:19:10.708Z,4.32
2023-05-15T07:21:37.420Z,4.85
2023-05-15T07:24:04.125Z,4.50
2023-05-15T07:26:34.813Z,5.10
2023-05-15T07:29:06.773Z,4.53
2023-05-15T07:31:33.184Z,4.43
2023-05-15T07:33:59.283Z,3.78
2023-05-15T07:36:25.156Z,4.82
2023-05-15T07:38:51.206Z,4.28
2023-05-15T07:41:17.247Z,4.15
2023-05-15T07:43:43.268Z,3.53
2023-05-15T07:46:09.350Z,3.90
2023-05-15T07:48:35.307Z,3.90
2023-05-15T07:51:01.232Z,4.35
2023-05-15T07:53:27.136Z,3.38
2023-05-15T07:55:53.262Z,3.72
2023-05-15T07:58:19.489Z,3.72
2023-05-15T08:00:45.368Z,3.97
2023-05-15T08:03:11.495Z,3.70
2023-05-15T08:05:37.570Z,3.90
2023-05-15T08:08:03.398Z,3.10
2023-05-15T08:10:29.546Z,2.80
2023-05-15T08:12:55.957Z,2.92
2023-05-15T08:15:22.014Z,3.00
2023-05-15T08:17:48.303Z,2.78
2023-05-15T08:20:14.296Z,2.55
2023-05-15T08:22:40.228Z,3.38
2023-05-15T08:25:06.654Z,3.17
2023-05-15T08:27:32.691Z,3.20
2023-05-15T08:29:58.547Z,3.10
2023-05-15T08:32:25.256Z,2.50
2023-05-15T08:34:51.253Z,3.05
2023-05-15T08:37:17.113Z,3.25
2023-05-15T08:39:43.229Z,3.13
2023-05-15T08:42:24.143Z,3.17
2023-05-15T08:44:50.208Z,3.10
2023-05-15T08:47:16.502Z,2.97
2023-05-15T08:49:47.498Z,2.85
2023-05-15T08:52:13.481Z,3.67
2023-05-15T08:54:40.110Z,2.83
2023-05-15T08:57:06.890Z,2.63
2023-05-15T08:59:33.409Z,2.00
2023-05-15T09:01:59.737Z,2.70
2023-05-15T09:04:25.832Z,2.42
2023-05-15T09:06:53.312Z,2.83
2023-05-15T09:09:20.039Z,3.10
2023-05-15T09:11:47.572Z,3.33
2023-05-15T09:14:16.545Z,3.50
2023-05-15T09:16:43.523Z,2.85
2023-05-15T09:19:10.264Z,3.47
2023-05-15T09:21:36.933Z,3.15
2023-05-15T09:24:15.422Z,2.83
2023-05-15T09:26:42.127Z,3.17
2023-05-15T09:29:08.316Z,3.10
2023-05-15T09:31:34.463Z,3.85
2023-05-15T09:34:01.738Z,5.88
2023-05-15T09:36:28.015Z,4.38
2023-05-15T09:38:57.913Z,3.60
2023-05-15T09:41:24.290Z,3.25
2023-05-15T09:44:02.605Z,3.08
2023-05-15T09:46:28.798Z,3.28
2023-05-15T09:48:55.229Z,3.28
2023-05-15T09:51:21.764Z,3.47
2023-05-15T09:53:49.540Z,3.60
2023-05-15T09:56:15.718Z,3.80
2023-05-15T09:58:55.043Z,3.13
2023-05-15T10:01:21.700Z,3.38
2023-05-15T10:04:00.307Z,3.65
2023-05-15T10:06:26.180Z,2.72
2023-05-15T10:08:55.138Z,3.08
2023-05-15T10:11:22.195Z,3.88
2023-05-15T10:13:48.213Z,3.58
2023-05-15T10:16:15.186Z,3.63
2023-05-15T10:18:42.537Z,2.92
2023-05-15T10:21:08.930Z,2.70
2023-05-15T10:23:40.787Z,3.17
2023-05-15T10:26:15.747Z,3.40
2023-05-15T10:28:44.764Z,2.78
2023-05-15T10:31:11.393Z,3.50
2023-05-15T10:33:38.441Z,2.63
2023-05-15T10:36:04.958Z,2.70
2023-05-15T10:38:32.816Z,2.80
2023-05-15T10:41:13.036Z,3.35
2023-05-15T10:44:10.422Z,3.03
2023-05-15T10:46:37.046Z,3.15
2023-05-15T10:49:03.887Z,2.90
2023-05-15T10:51:32.416Z,3.22
2023-05-15T10:54:00.848Z,2.83
2023-05-15T10:56:29.623Z,2.40
2023-05-15T10:58:55.969Z,3.00
2023-05-15T11:01:32.344Z,2.60
2023-05-15T11:04:19.076Z,3.00
2023-05-15T11:06:46.233Z,2.45
2023-05-15T11:09:21.366Z,2.47
2023-05-15T11:11:56.537Z,2.45
2023-05-15T11:14:32.455Z,2.42
2023-05-15T11:16:59.324Z,2.28
2023-05-15T11:19:28.551Z,2.20
2023-05-15T11:22:00.422Z,2.95
2023-05-15T11:24:30.409Z,2.80
2023-05-15T11:27:03.575Z,2.05
2023-05-15T11:29:29.940Z,2.65
2023-05-15T11:31:57.227Z,2.83
2023-05-15T11:34:37.428Z,2.47
2023-05-15T11:37:10.304Z,2.30
2023-05-15T11:39:38.789Z,3.15
2023-05-15T11:42:13.810Z,3.05
2023-05-15T11:44:40.080Z,2.65
2023-05-15T11:47:09.332Z,2.38
2023-05-15T11:49:37.505Z,2.30
2023-05-15T11:52:03.831Z,2.90
2023-05-15T11:54:33.297Z,2.72
2023-05-15T11:56:59.526Z,2.88
2023-05-15T11:59:26.563Z,2.67
2023-05-15T12:01:52.865Z,2.75
2023-05-15T12:04:19.603Z,3.17
2023-05-15T12:06:49.439Z,5.82
2023-05-15T12:09:19.244Z,4.50
2023-05-15T12:11:52.192Z,4.00
2023-05-15T12:14:30.167Z,3.83
2023-05-15T12:17:08.922Z,3.30
2023-05-15T12:22:21.264Z,4.47
2023-05-15T12:27:28.097Z,4.25
2023-05-15T12:29:58.896Z,5.40
2023-05-15T12:35:10.073Z,4.25
2023-05-15T12:37:37.285Z,5.93
2023-05-15T12:42:59.821Z,4.40
2023-05-15T12:45:26.197Z,3.95
2023-05-15T12:48:00.374Z,3.78
2023-05-15T12:50:30.088Z,3.47
2023-05-15T12:52:58.272Z,3.57
2023-05-15T12:55:24.796Z,3.42
2023-05-15T12:57:51.491Z,3.40
2023-05-15T13:00:31.792Z,3.53
2023-05-15T13:05:42.439Z,3.25
2023-05-15T13:08:08.675Z,2.80
2023-05-15T13:10:37.368Z,2.70
2023-05-15T13:13:08.988Z,3.67
2023-05-15T13:15:41.094Z,2.92
2023-05-15T13:18:14.343Z,3.53
2023-05-15T13:20:47.377Z,3.40
2023-05-15T13:23:17.576Z,3.58
2023-05-15T13:25:43.804Z,3.85
2023-05-15T13:28:10.415Z,3.38
2023-05-15T13:30:40.816Z,2.80
2023-05-15T13:33:11.258Z,2.90
2023-05-15T13:35:37.934Z,2.78
2023-05-15T13:38:04.089Z,2.70
2023-05-15T13:40:33.183Z,2.13
2023-05-15T13:43:21.553Z,2.03
2023-05-15T13:45:49.271Z,2.35
2023-05-15T13:48:19.844Z,1.83
2023-05-15T13:53:16.837Z,2.00
2023-05-15T13:55:49.293Z,2.00
2023-05-15T13:58:16.555Z,2.25
2023-05-15T14:00:44.151Z,1.70
2023-05-15T14:03:14.038Z,1.92
2023-05-15T14:05:41.735Z,1.70
2023-05-15T14:08:08.556Z,1.75
2023-05-15T14:10:35.763Z,1.40
2023-05-15T14:13:05.510Z,1.90
2023-05-15T14:15:31.982Z,2.40
2023-05-15T14:18:01.610Z,2.20
2023-05-15T14:20:28.328Z,2.00
2023-05-15T14:22:55.243Z,2.33
2023-05-15T14:25:21.300Z,2.30
2023-05-15T14:27:47.394Z,1.70
2023-05-15T14:30:15.256Z,1.42
2023-05-15T14:32:41.355Z,1.90
2023-05-15T14:35:07.464Z,1.70
2023-05-15T14:37:33.838Z,1.40
2023-05-15T14:40:00.220Z,1.80
2023-05-15T14:42:26.649Z,1.50
2023-05-15T14:44:52.527Z,1.50
2023-05-15T14:47:18.556Z,1.60
2023-05-15T14:49:44.618Z,3.38
2023-05-15T14:52:11.926Z,1.80
2023-05-15T14:54:38.475Z,2.17
2023-05-15T14:57:04.644Z,1.60
2023-05-15T14:59:31.134Z,1.70
2023-05-15T15:01:57.228Z,1.90
2023-05-15T15:04:23.413Z,1.40
2023-05-15T15:06:49.436Z,1.67
2023-05-15T15:09:15.796Z,1.85
2023-05-15T15:11:41.800Z,2.42
2023-05-15T15:14:10.886Z,2.33
2023-05-15T15:16:36.926Z,1.65
2023-05-15T15:19:02.931Z,2.08
2023-05-15T15:21:28.985Z,2.30
2023-05-15T15:23:56.364Z,2.72
2023-05-15T15:26:22.214Z,2.00
2023-05-15T15:28:48.147Z,1.67
2023-05-15T15:31:14.912Z,1.60
2023-05-15T15:33:41.920Z,1.40
2023-05-15T15:36:07.989Z,1.40
2023-05-15T15:38:34.031Z,1.45
2023-05-15T15:41:01.759Z,1.38
2023-05-15T15:43:34.853Z,1.80
2023-05-15T15:46:00.713Z,1.30
2023-05-15T15:48:26.691Z,1.48
2023-05-15T15:50:52.857Z,1.30
2023-05-15T15:53:18.774Z,1.35
2023-05-15T15:55:47.057Z,1.60
2023-05-15T15:58:14.631Z,1.52
2023-05-15T16:00:45.248Z,1.73
2023-05-15T16:05:54.134Z,1.50
2023-05-15T16:08:20.083Z,2.08
2023-05-15T16:10:46.404Z,2.10
2023-05-15T16:13:13.334Z,2.00
2023-05-15T16:15:39.317Z,3.35
2023-05-15T16:18:06.021Z,2.20
2023-05-15T16:20:34.309Z,2.85
2023-05-15T16:25:45.126Z,2.42
2023-05-15T16:28:11.368Z,2.65
2023-05-15T16:30:48.082Z,2.35
2023-05-15T16:33:17.042Z,3.67
2023-05-15T16:35:44.935Z,3.63
2023-05-15T16:38:15.129Z,3.70
2023-05-15T16:52:12.612Z,5.30
2023-05-15T17:09:19.850Z,3.55
2023-05-15T17:12:12.907Z,3.97
2023-05-15T17:15:13.827Z,4.78
2023-05-15T17:20:14.269Z,5.32
2023-05-15T17:22:47.297Z,6.75
2023-05-15T17:25:14.389Z,4.88
2023-05-15T17:27:46.924Z,5.75
2023-05-15T17:30:18.505Z,7.63
2023-05-15T17:32:45.738Z,4.35
2023-05-15T17:37:52.136Z,4.85
2023-05-15T17:40:18.751Z,5.10
2023-05-15T17:42:45.707Z,4.32
2023-05-15T17:45:31.018Z,4.47
2023-05-15T17:48:03.000Z,4.50
2023-05-15T17:50:29.066Z,4.70
2023-05-15T17:53:06.216Z,5.40
2023-05-15T17:55:32.489Z,5.43
2023-05-15T17:58:00.031Z,5.25
2023-05-15T18:00:32.224Z,6.65
2023-05-15T18:03:08.096Z,5.07
2023-05-15T18:05:35.406Z,4.90
2023-05-15T18:08:13.805Z,5.15
2023-05-15T18:10:42.411Z,5.50
2023-05-15T18:13:26.941Z,5.30
2023-05-15T18:15:55.060Z,6.50
2023-05-15T18:21:03.292Z,5.43
2023-05-15T18:23:30.189Z,5.85
2023-05-15T18:25:57.020Z,6.13
2023-05-15T18:28:23.244Z,5.55
2023-05-15T18:30:50.363Z,5.53
2023-05-15T18:33:19.631Z,5.40
2023-05-15T18:35:45.728Z,4.32
2023-05-15T18:38:12.004Z,4.28
2023-05-15T18:40:40.345Z,4.93
2023-05-15T18:43:25.016Z,5.03
2023-05-15T18:45:51.034Z,5.85
2023-05-15T18:48:17.371Z,6.07
2023-05-15T18:56:35.503Z,7.28
2023-05-15T18:59:01.444Z,6.50
2023-05-15T19:01:30.100Z,6.97
2023-05-15T19:03:55.972Z,6.82
2023-05-15T19:06:22.259Z,6.28
2023-05-15T19:08:48.406Z,7.45
2023-05-15T19:19:43.111Z,5.40
2023-05-15T19:22:19.111Z,6.35
2023-05-15T19:24:45.054Z,6.20
2023-05-15T19:27:13.331Z,5.50
2023-05-15T19:29:42.288Z,5.95
2023-05-15T19:32:09.243Z,6.40
2023-05-15T19:34:36.983Z,6.63
2023-05-15T19:37:02.988Z,5.53
2023-05-15T19:39:54.039Z,6.35
2023-05-15T19:42:20.044Z,5.90
2023-05-15T19:44:47.572Z,5.95
2023-05-15T19:47:13.835Z,5.97
2023-05-15T19:49:40.698Z,5.03
2023-05-15T19:52:07.228Z,6.30
2023-05-15T19:54:33.223Z,5.93
2023-05-15T19:57:02.232Z,6.28
2023-05-15T19:59:30.125Z,6.13
2023-05-15T20:02:00.758Z,5.50
2023-05-15T20:06:54.041Z,6.18
2023-05-15T20:09:24.112Z,5.95
2023-05-15T20:11:51.223Z,5.57
2023-05-15T20:14:17.244Z,5.43
2023-05-15T20:16:45.604Z,5.57
2023-05-15T20:19:11.949Z,5.18
2023-05-15T20:21:39.236Z,5.75
2023-05-15T20:24:05.526Z,5.10
2023-05-15T20:26:33.916Z,5.15
2023-05-15T20:29:00.074Z,6.55
2023-05-15T20:31:26.516Z,5.68
2023-05-15T20:33:52.621Z,5.72
2023-05-15T20:36:23.951Z,5.40
2023-05-15T20:38:50.716Z,5.97
2023-05-15T20:41:18.726Z,5.07
2023-05-15T20:43:57.924Z,6.20
2023-05-15T20:46:24.012Z,5.50
2023-05-15T20:48:50.128Z,5.85
2023-05-15T20:51:16.276Z,5.15
2023-05-15T20:56:25.561Z,5.68
2023-05-15T20:58:52.950Z,5.32
2023-05-15T21:01:19.992Z,6.10
2023-05-15T21:03:46.070Z,4.80
2023-05-15T21:06:13.127Z,5.90
2023-05-15T21:08:38.918Z,5.57
2023-05-15T21:11:04.660Z,6.15
2023-05-15T21:13:35.676Z,6.50
2023-05-15T21:16:01.423Z,5.55
2023-05-15T21:18:27.155Z,5.18
2023-05-15T21:20:52.905Z,6.38
2023-05-15T21:23:20.371Z,7.18
2023-05-15T21:25:46.358Z,6.38
2023-05-15T21:28:12.054Z,5.85
2023-05-15T21:30:37.826Z,6.38
2023-05-15T21:33:03.627Z,5.93
2023-05-15T21:35:31.042Z,6.78
2023-05-15T21:37:56.925Z,5.95
2023-05-15T21:40:22.711Z,6.35
2023-05-15T21:42:49.539Z,7.32
2023-05-15T21:45:15.389Z,7.05
2023-05-15T21:47:41.266Z,6.32
2023-05-15T21:50:07.090Z,6.53
2023-05-15T21:52:33.021Z,5.97
2023-05-15T21:54:58.745Z,5.88
2023-05-15T21:57:24.511Z,5.13
2023-05-15T21:59:50.543Z,4.95
2023-05-15T22:02:16.291Z,5.22
2023-05-15T22:04:41.996Z,6.03
2023-05-15T22:07:07.938Z,6.30
2023-05-15T22:09:33.709Z,5.57
2023-05-15T22:11:59.758Z,5.38
2023-05-15T22:14:25.485Z,5.13
2023-05-15T22:16:51.303Z,6.20
2023-05-15T22:19:31.631Z,6.68
2023-05-15T22:21:58.815Z,6.05
2023-05-15T22:24:24.673Z,5.40
2023-05-15T22:26:50.367Z,5.72
2023-05-15T22:29:16.096Z,6.13
2023-05-15T22:31:41.872Z,5.28
2023-05-15T22:34:07.637Z,7.30
2023-05-15T22:36:36.026Z,5.78
2023-05-15T22:39:03.582Z,6.43
2023-05-15T22:41:29.823Z,5.40
2023-05-15T22:43:55.624Z,5.35
2023-05-15T22:46:21.435Z,5.45
2023-05-15T22:48:47.221Z,6.15
2023-05-15T22:51:15.264Z,6.72
2023-05-15T22:53:41.358Z,6.32
2023-05-15T22:56:07.747Z,6.40
2023-05-15T22:58:33.611Z,5.85
2023-05-15T23:00:59.330Z,5.72
2023-05-15T23:03:25.179Z,5.63
2023-05-15T23:05:52.855Z,5.82
2023-05-15T23:08:18.778Z,6.45
2023-05-15T23:10:44.539Z,6.55
2023-05-15T23:13:10.268Z,7.38
2023-05-15T23:15:36.029Z,6.22
2023-05-15T23:18:01.866Z,7.30
2023-05-15T23:20:27.977Z,6.05
2023-05-15T23:22:53.933Z,6.00
2023-05-15T23:25:19.729Z,6.53
2023-05-15T23:27:45.667Z,6.00
2023-05-15T23:30:11.544Z,6.38
2023-05-15T23:32:37.308Z,6.65
2023-05-15T23:35:03.198Z,6.88
2023-05-15T23:37:28.943Z,6.75
2023-05-15T23:39:54.778Z,7.35
2023-05-15T23:42:22.107Z,8.02
2023-05-15T23:44:48.363Z,7.70
2023-05-15T23:47:14.147Z,7.68
2023-05-15T23:49:40.090Z,7.60
2023-05-15T23:52:06.445Z,8.50
2023-05-15T23:54:32.232Z,8.73
2023-05-15T23:56:58.003Z,8.63
2023-05-15T23:59:23.743Z,8.13
